Wauconda, Illinois
Current Conditions -  °F | °C
As of 3:52 AM on Thursday 27 Nov 2014 (Local Time) from KPWK Reporting Station
Overcast Overcast  
Wind Chill: 12°   Ceiling: 7500
Heat Index: 22°   Visibility: 7mi
Dew Point: 17°   Wind: 9mph
Humidity: 82%   Direction: 320°NW
Pressure: 30.25"   Gusts: NA
Location:  42.26°N, 88.14°W
Report Text: KPWK 270952Z AUTO 32008KT 7SM BKN075 OVC110 M06/M08 A3025 RMK AO2 SLP253 T10561083
Loading
Personal Weather Stations






























Interactive Weather Map New forecast layout! Learn more

10-Day Weather Forecast

Advertisements
Track Severe Weather on mobile